Time;durP1;ratioP1;P1;durP2;ratioP2;P2;SDS_P1;SDS_P2;PMS_P1;PMS_P2;Temp;Humidity;BMP_temperature;BMP_pressure;BME280_temperature;BME280_humidity;BME280_pressure;Samples;Min_cycle;Max_cycle;Signal;HPM_P1;HPM_P2
2022/04/13 00:00:15;;;;;;;4.68;3.10;;;;;;;;;;5003150;28;20046;-66
2022/04/13 00:02:42;;;;;;;4.50;3.10;;;;;;;;;;5001515;28;20054;-66
2022/04/13 00:05:09;;;;;;;3.70;2.60;;;;;;;;;;5002692;28;20112;-65
2022/04/13 00:07:36;;;;;;;4.20;2.67;;;;;;;;;;5001692;28;20516;-65
2022/04/13 00:10:04;;;;;;;4.03;2.70;;;;;;;;;;4999948;28;20413;-65
2022/04/13 00:12:30;;;;;;;4.03;2.45;;;;;;;;;;5001588;28;20054;-66
2022/04/13 00:14:57;;;;;;;4.30;3.13;;;;;;;;;;5001444;28;21132;-65
2022/04/13 00:17:23;;;;;;;4.55;3.28;;;;;;;;;;5000844;28;20046;-66
2022/04/13 00:19:50;;;;;;;4.65;3.17;;;;;;;;;;5000368;28;20058;-66
2022/04/13 00:22:17;;;;;;;4.70;3.00;;;;;;;;;;5000443;28;20053;-65
2022/04/13 00:24:43;;;;;;;5.20;2.85;;;;;;;;;;5001252;28;20046;-65
2022/04/13 00:27:10;;;;;;;6.45;3.03;;;;;;;;;;4999575;28;20069;-66
2022/04/13 00:29:36;;;;;;;6.57;3.50;;;;;;;;;;5001723;28;20042;-66
2022/04/13 00:32:03;;;;;;;4.55;2.97;;;;;;;;;;4999331;28;20057;-66
2022/04/13 00:34:31;;;;;;;5.00;3.03;;;;;;;;;;5003405;28;20060;-66
2022/04/13 00:36:58;;;;;;;4.30;3.03;;;;;;;;;;5002282;28;20128;-65
2022/04/13 00:39:25;;;;;;;6.05;3.38;;;;;;;;;;4998824;28;20068;-65
2022/04/13 00:42:03;;;;;;;4.40;3.13;;;;;;;;;;4999402;28;20070;-66
2022/04/13 00:44:30;;;;;;;4.97;2.97;;;;;;;;;;5002818;28;20513;-66
2022/04/13 00:46:57;;;;;;;3.28;2.95;;;;;;;;;;5000497;28;20045;-65
2022/04/13 00:49:25;;;;;;;3.28;2.70;;;;;;;;;;4999764;28;20053;-65
2022/04/13 00:51:52;;;;;;;5.60;3.25;;;;;;;;;;5002756;28;20101;-66
2022/04/13 00:54:19;;;;;;;3.90;3.05;;;;;;;;;;4998538;28;20138;-65
2022/04/13 00:56:48;;;;;;;8.30;2.92;;;;;;;;;;5003176;28;20465;-66
2022/04/13 00:59:15;;;;;;;5.55;3.38;;;;;;;;;;4999526;28;20049;-66
2022/04/13 01:01:46;;;;;;;4.07;2.80;;;;;;;;;;4999251;28;20504;-65
2022/04/13 01:04:13;;;;;;;5.50;2.97;;;;;;;;;;5001883;28;20182;-66
2022/04/13 01:06:41;;;;;;;5.50;3.13;;;;;;;;;;4999430;28;20054;-66
2022/04/13 01:09:09;;;;;;;5.07;2.85;;;;;;;;;;5001364;28;20065;-66
2022/04/13 01:11:35;;;;;;;3.78;3.20;;;;;;;;;;4998387;28;20109;-66
2022/04/13 01:14:02;;;;;;;6.28;2.90;;;;;;;;;;5000384;28;20049;-65
2022/04/13 01:16:29;;;;;;;4.07;2.92;;;;;;;;;;4998887;28;20046;-65
2022/04/13 01:18:55;;;;;;;4.55;2.63;;;;;;;;;;5000519;28;20510;-66
2022/04/13 01:21:45;;;;;;;5.25;3.05;;;;;;;;;;5001181;28;20042;-65
2022/04/13 01:24:12;;;;;;;5.93;3.03;;;;;;;;;;5001352;28;20556;-65
2022/04/13 01:26:38;;;;;;;5.10;2.80;;;;;;;;;;5000365;28;20050;-66
2022/04/13 01:29:05;;;;;;;4.07;2.88;;;;;;;;;;4999181;28;20054;-66
2022/04/13 01:31:32;;;;;;;4.50;3.17;;;;;;;;;;4999034;28;20058;-65
2022/04/13 01:33:59;;;;;;;4.18;2.83;;;;;;;;;;4998462;28;20046;-66
2022/04/13 01:36:26;;;;;;;3.55;2.90;;;;;;;;;;5000701;28;20046;-65
2022/04/13 01:38:53;;;;;;;3.83;2.63;;;;;;;;;;4998128;28;20054;-65
2022/04/13 01:41:19;;;;;;;4.38;3.22;;;;;;;;;;4999743;28;20472;-65
2022/04/13 01:43:46;;;;;;;4.80;3.40;;;;;;;;;;4998525;28;20050;-65
2022/04/13 01:46:13;;;;;;;5.13;3.33;;;;;;;;;;4999617;28;20038;-65
2022/04/13 01:48:39;;;;;;;4.35;3.55;;;;;;;;;;4998452;28;20058;-65
2022/04/13 01:51:06;;;;;;;6.38;3.67;;;;;;;;;;4999730;28;20057;-66
2022/04/13 01:53:33;;;;;;;3.92;3.40;;;;;;;;;;4998370;28;20054;-65
2022/04/13 01:55:59;;;;;;;4.65;2.95;;;;;;;;;;4998947;28;20509;-65
2022/04/13 01:58:26;;;;;;;5.10;3.10;;;;;;;;;;4998835;28;20152;-65
2022/04/13 02:00:55;;;;;;;6.13;3.53;;;;;;;;;;4998464;28;20465;-65
2022/04/13 02:03:25;;;;;;;5.35;3.42;;;;;;;;;;5004011;28;20064;-65
2022/04/13 02:05:53;;;;;;;7.63;3.70;;;;;;;;;;4996914;28;20046;-65
2022/04/13 02:08:20;;;;;;;4.85;3.30;;;;;;;;;;5036945;23;20050;-65
2022/04/13 02:10:47;;;;;;;5.72;3.17;;;;;;;;;;5016916;28;20054;-65
2022/04/13 02:13:14;;;;;;;9.35;4.70;;;;;;;;;;5016964;28;20053;-64
2022/04/13 02:15:41;;;;;;;6.55;2.90;;;;;;;;;;5017714;28;20133;-65
2022/04/13 02:18:07;;;;;;;4.93;3.35;;;;;;;;;;5020331;28;20096;-64
2022/04/13 02:20:34;;;;;;;5.85;3.38;;;;;;;;;;5017594;28;20053;-64
2022/04/13 02:23:03;;;;;;;4.68;3.50;;;;;;;;;;5019030;28;20045;-66
2022/04/13 02:25:30;;;;;;;6.50;3.60;;;;;;;;;;5018009;28;20401;-64
2022/04/13 02:27:57;;;;;;;4.28;3.38;;;;;;;;;;5017652;28;20057;-65
2022/04/13 02:30:23;;;;;;;5.22;3.55;;;;;;;;;;5018381;28;20108;-65
2022/04/13 02:32:50;;;;;;;11.50;4.28;;;;;;;;;;5017783;28;20045;-65
2022/04/13 02:35:17;;;;;;;4.82;3.75;;;;;;;;;;5018990;28;20052;-64
2022/04/13 02:37:43;;;;;;;6.72;3.63;;;;;;;;;;5017075;28;20507;-65
2022/04/13 02:40:11;;;;;;;6.18;3.88;;;;;;;;;;5019496;28;20129;-65
2022/04/13 02:42:38;;;;;;;9.30;4.07;;;;;;;;;;5016168;28;20455;-65
2022/04/13 02:45:05;;;;;;;5.82;4.40;;;;;;;;;;5019559;28;20057;-65
2022/04/13 02:47:33;;;;;;;9.48;4.72;;;;;;;;;;5017190;28;20045;-65
2022/04/13 02:50:02;;;;;;;7.43;5.00;;;;;;;;;;5018997;28;20050;-64
2022/04/13 02:52:29;;;;;;;5.30;3.85;;;;;;;;;;5017040;28;20053;-64
2022/04/13 02:54:56;;;;;;;7.03;3.92;;;;;;;;;;5019011;28;20057;-65
2022/04/13 02:57:23;;;;;;;4.60;3.97;;;;;;;;;;5017370;28;20555;-64
2022/04/13 02:59:49;;;;;;;5.55;3.80;;;;;;;;;;5017840;28;20050;-64
2022/04/13 03:02:17;;;;;;;5.47;4.03;;;;;;;;;;5020222;28;20064;-64
2022/04/13 03:04:45;;;;;;;6.50;3.65;;;;;;;;;;5017851;28;20058;-65
2022/04/13 03:07:13;;;;;;;6.10;4.07;;;;;;;;;;5018104;28;20049;-64
2022/04/13 03:09:39;;;;;;;6.13;3.60;;;;;;;;;;5016784;28;20061;-65
2022/04/13 03:12:07;;;;;;;4.35;3.83;;;;;;;;;;5021244;28;20054;-66
2022/04/13 03:14:34;;;;;;;6.50;3.78;;;;;;;;;;5015900;28;20058;-66
2022/04/13 03:17:01;;;;;;;5.38;3.80;;;;;;;;;;5020993;28;20447;-66
2022/04/13 03:19:28;;;;;;;4.75;2.47;;;;;;;;;;5016994;28;20104;-66
2022/04/13 03:21:54;;;;;;;5.95;2.78;;;;;;;;;;5015891;28;20053;-65
2022/04/13 03:24:24;;;;;;;5.55;3.20;;;;;;;;;;5015335;28;20046;-66
2022/04/13 03:26:51;;;;;;;3.35;2.42;;;;;;;;;;5018780;28;20049;-66
2022/04/13 03:29:18;;;;;;;4.68;3.47;;;;;;;;;;5020527;28;20045;-66
2022/04/13 03:31:45;;;;;;;3.70;2.70;;;;;;;;;;5017715;28;20462;-66
2022/04/13 03:34:11;;;;;;;4.55;3.13;;;;;;;;;;5017555;28;20064;-66
2022/04/13 03:36:41;;;;;;;4.80;3.38;;;;;;;;;;5017198;28;20487;-66
2022/04/13 03:39:07;;;;;;;6.15;3.08;;;;;;;;;;5018229;28;20054;-66
2022/04/13 03:41:35;;;;;;;5.18;3.30;;;;;;;;;;5018966;28;20049;-66
2022/04/13 03:44:05;;;;;;;3.95;2.88;;;;;;;;;;5018746;28;20050;-66
2022/04/13 03:46:32;;;;;;;5.63;3.45;;;;;;;;;;5022808;28;20045;-66
2022/04/13 03:48:59;;;;;;;7.10;3.17;;;;;;;;;;5022454;28;20061;-66
2022/04/13 03:51:25;;;;;;;7.43;3.50;;;;;;;;;;5020353;28;20085;-65
2022/04/13 03:53:53;;;;;;;4.18;3.58;;;;;;;;;;5023953;28;20049;-66
2022/04/13 03:56:19;;;;;;;4.63;3.33;;;;;;;;;;5022624;28;20046;-65
2022/04/13 03:58:46;;;;;;;5.40;3.30;;;;;;;;;;5022746;28;20049;-67
2022/04/13 04:01:13;;;;;;;6.05;3.40;;;;;;;;;;5021971;28;20067;-66
2022/04/13 04:03:40;;;;;;;5.45;3.85;;;;;;;;;;5021001;28;20053;-66
2022/04/13 04:06:06;;;;;;;9.15;3.60;;;;;;;;;;5020837;28;20433;-66
2022/04/13 04:08:33;;;;;;;4.60;3.90;;;;;;;;;;5020541;28;20454;-66
2022/04/13 04:11:00;;;;;;;5.97;3.92;;;;;;;;;;5021116;28;20049;-65
2022/04/13 04:13:27;;;;;;;6.00;3.22;;;;;;;;;;5020072;28;20492;-66
2022/04/13 04:15:53;;;;;;;4.55;3.33;;;;;;;;;;5021606;28;20140;-66
2022/04/13 04:18:20;;;;;;;7.22;3.72;;;;;;;;;;5018964;28;20448;-65
2022/04/13 04:20:47;;;;;;;3.63;2.92;;;;;;;;;;5018585;28;20046;-65
2022/04/13 04:23:13;;;;;;;5.95;3.60;;;;;;;;;;5019274;28;20049;-67
2022/04/13 04:25:40;;;;;;;4.88;3.63;;;;;;;;;;5019087;28;20516;-66
2022/04/13 04:28:10;;;;;;;5.18;3.40;;;;;;;;;;5019018;28;20069;-65
2022/04/13 04:30:40;;;;;;;6.68;3.30;;;;;;;;;;5021150;28;20080;-66
2022/04/13 04:33:08;;;;;;;5.00;3.28;;;;;;;;;;5019813;28;20442;-66
2022/04/13 04:35:35;;;;;;;3.88;3.10;;;;;;;;;;5020114;28;20065;-66
2022/04/13 04:38:02;;;;;;;5.57;3.97;;;;;;;;;;5020188;28;20103;-66
2022/04/13 04:40:29;;;;;;;6.97;3.17;;;;;;;;;;5020203;28;20053;-66
2022/04/13 04:42:55;;;;;;;5.05;3.35;;;;;;;;;;5020196;28;20053;-66
2022/04/13 04:45:23;;;;;;;4.07;2.92;;;;;;;;;;5019254;28;20401;-65
2022/04/13 04:47:50;;;;;;;7.68;3.53;;;;;;;;;;5021462;28;20049;-66
2022/04/13 04:50:18;;;;;;;5.88;3.28;;;;;;;;;;5018535;28;20053;-66
2022/04/13 04:52:45;;;;;;;5.20;3.10;;;;;;;;;;5018418;28;20045;-66
2022/04/13 04:55:13;;;;;;;4.88;3.13;;;;;;;;;;5019169;28;20455;-66
2022/04/13 04:57:40;;;;;;;5.85;3.20;;;;;;;;;;5019448;28;20045;-67
2022/04/13 05:00:09;;;;;;;5.20;2.92;;;;;;;;;;5020494;28;20053;-66
2022/04/13 05:02:37;;;;;;;6.72;2.70;;;;;;;;;;5021212;28;20049;-66
2022/04/13 05:05:05;;;;;;;7.22;3.55;;;;;;;;;;5019145;28;20061;-66
2022/04/13 05:07:32;;;;;;;5.03;3.63;;;;;;;;;;5019029;28;20048;-66
2022/04/13 05:09:59;;;;;;;5.57;3.47;;;;;;;;;;5020042;28;20492;-66
2022/04/13 05:12:26;;;;;;;6.43;2.97;;;;;;;;;;5018702;28;20093;-66
2022/04/13 05:14:55;;;;;;;9.00;2.80;;;;;;;;;;5023894;28;20080;-66
2022/04/13 05:17:23;;;;;;;4.95;3.05;;;;;;;;;;5018302;28;20045;-66
2022/04/13 05:19:49;;;;;;;5.75;3.08;;;;;;;;;;5018010;28;20698;-66
2022/04/13 05:22:16;;;;;;;4.70;3.15;;;;;;;;;;5017682;28;20586;-66
2022/04/13 05:24:43;;;;;;;5.70;3.10;;;;;;;;;;5017758;28;20563;-65
2022/04/13 05:27:10;;;;;;;4.15;3.20;;;;;;;;;;5019863;28;20096;-65
2022/04/13 05:29:37;;;;;;;7.68;3.17;;;;;;;;;;5020276;28;20107;-65
2022/04/13 05:32:03;;;;;;;4.82;3.35;;;;;;;;;;5015700;28;20420;-65
2022/04/13 05:34:31;;;;;;;4.47;2.90;;;;;;;;;;5019692;28;20084;-66
2022/04/13 05:36:58;;;;;;;6.05;3.25;;;;;;;;;;5016560;28;20104;-66
2022/04/13 05:39:25;;;;;;;6.47;3.35;;;;;;;;;;5020380;28;20111;-66
2022/04/13 05:41:52;;;;;;;4.65;3.33;;;;;;;;;;5017309;28;20068;-66
2022/04/13 05:44:19;;;;;;;8.30;3.78;;;;;;;;;;5016829;28;20050;-65
2022/04/13 05:46:45;;;;;;;8.32;3.30;;;;;;;;;;5017489;28;20045;-65
2022/04/13 05:49:13;;;;;;;7.10;3.47;;;;;;;;;;5018344;28;20120;-65
2022/04/13 05:51:40;;;;;;;5.47;3.10;;;;;;;;;;5018148;28;20113;-66
2022/04/13 05:54:07;;;;;;;6.15;3.33;;;;;;;;;;5015384;28;20415;-64
2022/04/13 05:56:33;;;;;;;7.28;3.58;;;;;;;;;;5017215;28;20111;-65
2022/04/13 05:59:00;;;;;;;4.70;3.10;;;;;;;;;;5016161;28;20054;-66
2022/04/13 06:01:26;;;;;;;3.88;2.67;;;;;;;;;;5017590;28;20503;-66
2022/04/13 06:03:53;;;;;;;5.43;3.40;;;;;;;;;;5020977;28;20045;-65
2022/04/13 06:06:21;;;;;;;5.70;3.35;;;;;;;;;;5017432;28;20050;-66
2022/04/13 06:08:48;;;;;;;7.32;3.28;;;;;;;;;;5015444;28;20049;-65
2022/04/13 06:11:14;;;;;;;5.15;3.10;;;;;;;;;;5016442;28;20056;-66
2022/04/13 06:13:41;;;;;;;7.55;3.38;;;;;;;;;;5015992;28;20052;-65
2022/04/13 06:16:08;;;;;;;7.40;3.00;;;;;;;;;;5016913;28;20052;-65
2022/04/13 06:18:35;;;;;;;7.03;3.50;;;;;;;;;;5015487;28;20140;-72
2022/04/13 06:21:01;;;;;;;8.50;3.42;;;;;;;;;;5016829;28;20060;-76
2022/04/13 06:23:28;;;;;;;9.50;3.33;;;;;;;;;;5016799;28;20475;-66
2022/04/13 06:25:55;;;;;;;8.30;3.20;;;;;;;;;;5016400;28;20363;-76
2022/04/13 06:28:21;;;;;;;5.50;3.78;;;;;;;;;;5017758;28;20049;-75
2022/04/13 06:30:48;;;;;;;5.38;3.20;;;;;;;;;;5020292;28;20053;-72
2022/04/13 06:33:15;;;;;;;5.93;3.42;;;;;;;;;;5017165;28;20057;-73
2022/04/13 06:35:41;;;;;;;5.22;3.33;;;;;;;;;;5013965;28;20049;-73
2022/04/13 06:38:08;;;;;;;6.40;3.55;;;;;;;;;;5017596;28;20404;-72
2022/04/13 06:40:35;;;;;;;7.18;3.88;;;;;;;;;;5016225;28;20054;-71
2022/04/13 06:43:01;;;;;;;8.02;3.50;;;;;;;;;;5023210;28;20054;-68
2022/04/13 06:45:28;;;;;;;4.25;3.10;;;;;;;;;;5019639;28;20085;-67
2022/04/13 06:47:55;;;;;;;4.93;3.30;;;;;;;;;;5017220;28;20056;-71
2022/04/13 06:50:22;;;;;;;4.85;3.25;;;;;;;;;;5014862;28;20053;-73
2022/04/13 06:52:49;;;;;;;5.47;3.55;;;;;;;;;;5017238;28;20054;-70
2022/04/13 06:55:15;;;;;;;6.22;3.75;;;;;;;;;;5016232;28;20057;-71
2022/04/13 06:57:42;;;;;;;5.32;3.75;;;;;;;;;;5022716;28;20592;-68
2022/04/13 07:00:13;;;;;;;6.40;4.00;;;;;;;;;;5026859;28;20049;-67
2022/04/13 07:02:40;;;;;;;7.53;3.85;;;;;;;;;;5019315;28;20432;-71
2022/04/13 07:05:27;;;;;;;4.63;4.10;;;;;;;;;;5016967;28;20116;-66
2022/04/13 07:07:55;;;;;;;8.63;3.97;;;;;;;;;;5018924;28;20042;-65
2022/04/13 07:10:22;;;;;;;9.05;4.60;;;;;;;;;;5018475;28;20046;-65
2022/04/13 07:12:49;;;;;;;7.90;4.10;;;;;;;;;;5018492;28;20077;-65
2022/04/13 07:15:18;;;;;;;10.80;4.57;;;;;;;;;;5017091;28;20088;-66
2022/04/13 07:17:46;;;;;;;16.40;4.32;;;;;;;;;;5018490;28;20046;-66
2022/04/13 07:20:13;;;;;;;7.50;4.20;;;;;;;;;;5018920;28;20439;-66
2022/04/13 07:22:51;;;;;;;6.63;4.25;;;;;;;;;;5023816;28;20523;-66
2022/04/13 07:25:18;;;;;;;8.95;4.82;;;;;;;;;;5022445;28;20046;-66
2022/04/13 07:27:46;;;;;;;9.40;4.60;;;;;;;;;;5020138;28;20077;-66
2022/04/13 07:30:13;;;;;;;8.20;3.75;;;;;;;;;;5024882;28;20052;-66
2022/04/13 07:32:45;;;;;;;10.32;4.90;;;;;;;;;;5020771;28;20447;-66
2022/04/13 07:35:12;;;;;;;7.93;4.10;;;;;;;;;;5021112;28;20045;-65
2022/04/13 07:37:39;;;;;;;6.72;4.38;;;;;;;;;;5020645;28;20567;-66
2022/04/13 07:40:13;;;;;;;6.57;4.88;;;;;;;;;;5025350;28;20446;-66
2022/04/13 07:42:40;;;;;;;8.55;4.57;;;;;;;;;;5024723;28;20052;-66
2022/04/13 07:45:08;;;;;;;10.85;5.00;;;;;;;;;;5020349;28;20558;-66
2022/04/13 07:47:35;;;;;;;6.93;4.15;;;;;;;;;;5022551;28;20046;-66
2022/04/13 07:50:02;;;;;;;9.75;4.28;;;;;;;;;;5019857;28;20495;-65
2022/04/13 07:52:32;;;;;;;5.95;3.97;;;;;;;;;;5023735;28;20060;-66
2022/04/13 07:54:59;;;;;;;8.07;4.18;;;;;;;;;;5020223;28;20385;-66
2022/04/13 07:57:26;;;;;;;7.30;4.15;;;;;;;;;;5021286;28;20096;-66
2022/04/13 07:59:52;;;;;;;8.02;4.57;;;;;;;;;;5020507;28;20124;-66
2022/04/13 08:02:20;;;;;;;7.65;4.50;;;;;;;;;;5021592;28;20045;-66
2022/04/13 08:04:47;;;;;;;4.93;3.90;;;;;;;;;;5019940;28;20064;-66
2022/04/13 08:07:14;;;;;;;9.23;4.03;;;;;;;;;;5021703;28;20049;-66
2022/04/13 08:09:41;;;;;;;7.70;4.15;;;;;;;;;;5021740;28;20053;-66
2022/04/13 08:12:08;;;;;;;7.25;3.92;;;;;;;;;;5020121;28;20455;-66
2022/04/13 08:14:34;;;;;;;7.20;3.88;;;;;;;;;;5021298;28;20045;-66
2022/04/13 08:17:03;;;;;;;7.53;3.90;;;;;;;;;;5019687;28;20054;-66
2022/04/13 08:19:50;;;;;;;7.90;3.72;;;;;;;;;;5022325;28;20042;-66
2022/04/13 08:22:24;;;;;;;6.05;4.35;;;;;;;;;;5020014;28;20072;-66
2022/04/13 08:24:51;;;;;;;7.10;3.40;;;;;;;;;;5019318;28;20574;-66
2022/04/13 08:27:18;;;;;;;8.32;3.90;;;;;;;;;;5021341;28;20565;-66
2022/04/13 08:29:46;;;;;;;10.00;4.38;;;;;;;;;;5019188;28;20049;-66
2022/04/13 08:32:16;;;;;;;5.88;4.03;;;;;;;;;;5020574;28;20057;-66
2022/04/13 08:34:43;;;;;;;5.68;3.35;;;;;;;;;;5019651;28;20065;-66
2022/04/13 08:37:10;;;;;;;7.03;3.45;;;;;;;;;;5020159;28;20045;-69
2022/04/13 08:39:37;;;;;;;9.20;4.07;;;;;;;;;;5019077;28;20053;-68
2022/04/13 08:42:11;;;;;;;5.05;3.67;;;;;;;;;;5019280;28;20046;-66
2022/04/13 08:44:37;;;;;;;8.77;3.33;;;;;;;;;;5020889;28;20389;-68
2022/04/13 08:47:22;;;;;;;5.65;3.50;;;;;;;;;;5018805;28;20050;-66
2022/04/13 08:49:52;;;;;;;5.35;3.15;;;;;;;;;;5019625;28;20050;-66
2022/04/13 08:52:30;;;;;;;6.95;3.33;;;;;;;;;;5021378;28;20049;-65
2022/04/13 08:55:05;;;;;;;5.50;2.53;;;;;;;;;;5019402;28;20100;-65
2022/04/13 08:57:41;;;;;;;3.28;2.53;;;;;;;;;;5020313;28;20184;-65
2022/04/13 09:00:13;;;;;;;10.13;3.17;;;;;;;;;;5023066;28;20098;-65
2022/04/13 09:03:13;;;;;;;10.40;2.67;;;;;;;;;;5019703;28;20054;-65
2022/04/13 09:05:59;;;;;;;5.30;2.53;;;;;;;;;;5020682;28;20077;-65
2022/04/13 09:08:33;;;;;;;3.88;2.17;;;;;;;;;;5004873;28;20104;-65
2022/04/13 09:11:01;;;;;;;6.63;2.70;;;;;;;;;;5021280;28;20107;-65
2022/04/13 09:13:28;;;;;;;4.88;2.60;;;;;;;;;;5020106;28;20046;-65
2022/04/13 09:15:58;;;;;;;5.63;2.70;;;;;;;;;;5011289;28;20049;-65
2022/04/13 09:18:25;;;;;;;3.35;1.80;;;;;;;;;;5025731;28;20056;-65
2022/04/13 09:20:52;;;;;;;3.50;2.38;;;;;;;;;;5026302;28;20321;-66
2022/04/13 09:23:18;;;;;;;4.18;2.30;;;;;;;;;;5024383;28;20538;-65
2022/04/13 09:25:45;;;;;;;5.82;2.55;;;;;;;;;;5018039;28;20084;-66
2022/04/13 09:28:12;;;;;;;6.90;2.67;;;;;;;;;;5024316;28;20111;-65
2022/04/13 09:30:38;;;;;;;2.97;2.13;;;;;;;;;;5017179;28;20467;-65
2022/04/13 09:33:05;;;;;;;2.45;1.92;;;;;;;;;;5019802;28;20092;-65
2022/04/13 09:35:33;;;;;;;4.13;2.33;;;;;;;;;;5018317;28;20108;-66
2022/04/13 09:38:03;;;;;;;5.05;2.33;;;;;;;;;;5020103;28;20072;-65
2022/04/13 09:40:34;;;;;;;6.32;2.83;;;;;;;;;;5018920;28;20057;-65
2022/04/13 09:43:11;;;;;;;6.05;2.30;;;;;;;;;;5020829;28;20064;-65
2022/04/13 09:45:42;;;;;;;6.13;2.97;;;;;;;;;;5022735;28;20061;-65
2022/04/13 09:48:10;;;;;;;5.88;2.35;;;;;;;;;;5018251;28;20050;-65
2022/04/13 09:50:37;;;;;;;8.98;2.50;;;;;;;;;;5021697;28;20050;-65
2022/04/13 09:53:05;;;;;;;5.93;2.10;;;;;;;;;;5019086;28;20057;-64
2022/04/13 09:55:42;;;;;;;5.75;2.55;;;;;;;;;;5019130;28;20053;-68
2022/04/13 09:58:13;;;;;;;7.88;2.10;;;;;;;;;;5017761;28;20593;-65
2022/04/13 10:00:42;;;;;;;4.57;2.28;;;;;;;;;;5018093;28;20054;-70
2022/04/13 10:03:19;;;;;;;4.78;1.92;;;;;;;;;;5019411;28;20045;-66
2022/04/13 10:05:50;;;;;;;3.10;1.90;;;;;;;;;;5019368;28;20045;-66
2022/04/13 10:08:23;;;;;;;4.70;2.10;;;;;;;;;;5016617;28;20053;-66
2022/04/13 10:10:51;;;;;;;8.35;2.15;;;;;;;;;;5022855;28;20500;-66
2022/04/13 10:13:43;;;;;;;6.70;2.05;;;;;;;;;;5018027;28;20049;-66
2022/04/13 10:16:11;;;;;;;3.97;2.35;;;;;;;;;;5017571;28;20058;-66
2022/04/13 10:18:57;;;;;;;4.60;1.88;;;;;;;;;;5018771;28;20081;-67
2022/04/13 10:21:45;;;;;;;4.65;1.88;;;;;;;;;;5018989;28;20518;-65
2022/04/13 10:24:26;;;;;;;7.90;3.67;;;;;;;;;;5020099;28;20054;-65
2022/04/13 10:26:59;;;;;;;8.88;2.83;;;;;;;;;;5017117;28;20045;-65
2022/04/13 10:29:27;;;;;;;3.28;2.50;;;;;;;;;;5018953;28;20104;-66
2022/04/13 10:32:07;;;;;;;6.13;2.00;;;;;;;;;;5018737;28;20557;-65
2022/04/13 10:34:39;;;;;;;4.00;1.75;;;;;;;;;;5017658;28;20050;-65
2022/04/13 10:37:07;;;;;;;6.90;2.08;;;;;;;;;;5023192;28;20100;-66
2022/04/13 10:39:34;;;;;;;3.95;1.90;;;;;;;;;;5018029;28;20385;-74
2022/04/13 10:42:05;;;;;;;5.18;1.92;;;;;;;;;;5015793;28;20643;-73
2022/04/13 10:44:36;;;;;;;5.30;1.80;;;;;;;;;;5018261;28;20057;-74
2022/04/13 10:47:25;;;;;;;4.13;1.60;;;;;;;;;;5017607;28;20053;-73
2022/04/13 10:49:54;;;;;;;4.35;2.00;;;;;;;;;;5009423;28;20103;-74
2022/04/13 10:52:36;;;;;;;2.95;1.63;;;;;;;;;;5003998;28;20726;-72
2022/04/13 10:55:05;;;;;;;3.90;1.73;;;;;;;;;;5004246;28;20057;-71
2022/04/13 10:57:53;;;;;;;4.25;1.95;;;;;;;;;;5020381;28;20056;-73
2022/04/13 11:00:33;;;;;;;7.05;2.03;;;;;;;;;;5022432;28;20041;-77
2022/04/13 11:03:05;;;;;;;4.40;1.52;;;;;;;;;;5005637;28;20054;-71
2022/04/13 11:05:33;;;;;;;3.08;1.05;;;;;;;;;;5021349;28;20646;-72
2022/04/13 11:08:26;;;;;;;2.72;1.23;;;;;;;;;;5024173;28;20095;-74
2022/04/13 11:10:54;;;;;;;4.03;1.50;;;;;;;;;;5024299;28;20053;-75
2022/04/13 11:13:32;;;;;;;4.32;1.50;;;;;;;;;;5001832;28;20057;-72
2022/04/13 11:16:19;;;;;;;5.22;1.60;;;;;;;;;;5012645;28;20144;-74
2022/04/13 11:19:03;;;;;;;5.43;1.45;;;;;;;;;;5013349;28;20415;-75
2022/04/13 11:21:50;;;;;;;4.40;1.70;;;;;;;;;;5024159;28;20049;-74
2022/04/13 11:24:45;;;;;;;6.47;2.05;;;;;;;;;;5010787;28;20053;-65
2022/04/13 11:27:12;;;;;;;5.60;2.40;;;;;;;;;;5024411;28;20049;-65
2022/04/13 11:29:42;;;;;;;5.07;1.80;;;;;;;;;;5021251;28;20133;-65
2022/04/13 11:32:10;;;;;;;5.03;2.10;;;;;;;;;;5022023;28;20050;-74
2022/04/13 11:34:49;;;;;;;9.23;2.33;;;;;;;;;;5021338;28;20176;-74
2022/04/13 11:37:17;;;;;;;3.90;1.58;;;;;;;;;;5021171;28;20049;-74
2022/04/13 11:40:10;;;;;;;5.95;1.70;;;;;;;;;;5026568;28;20466;-73
2022/04/13 11:42:40;;;;;;;2.65;1.63;;;;;;;;;;5027214;28;20530;-73
2022/04/13 11:45:14;;;;;;;4.05;1.63;;;;;;;;;;5020643;28;20053;-73
2022/04/13 11:47:53;;;;;;;6.15;1.92;;;;;;;;;;5023884;28;20053;-75
2022/04/13 11:50:21;;;;;;;6.25;1.92;;;;;;;;;;5023403;28;20045;-74
2022/04/13 11:52:58;;;;;;;4.50;1.60;;;;;;;;;;5019372;28;20082;-72
2022/04/13 11:55:45;;;;;;;6.93;2.33;;;;;;;;;;5023734;28;20053;-76
2022/04/13 11:58:13;;;;;;;3.65;1.92;;;;;;;;;;4982970;28;20045;-72
2022/04/13 12:00:54;;;;;;;5.90;2.03;;;;;;;;;;5033426;28;20053;-71
2022/04/13 12:03:25;;;;;;;4.70;2.00;;;;;;;;;;5023053;28;20046;-71
2022/04/13 12:05:57;;;;;;;3.63;1.85;;;;;;;;;;5025113;28;20464;-75
2022/04/13 12:08:29;;;;;;;5.68;2.00;;;;;;;;;;5021424;28;20056;-72
2022/04/13 12:11:38;;;;;;;5.20;1.63;;;;;;;;;;5026732;28;20042;-75
2022/04/13 12:14:13;;;;;;;5.20;2.03;;;;;;;;;;5013560;28;20049;-76
2022/04/13 12:16:41;;;;;;;3.25;1.83;;;;;;;;;;5005400;28;20057;-74
2022/04/13 12:19:11;;;;;;;4.53;1.70;;;;;;;;;;5019612;28;20069;-75
2022/04/13 12:21:39;;;;;;;2.38;1.38;;;;;;;;;;5019554;28;20053;-66
2022/04/13 12:24:10;;;;;;;4.50;1.38;;;;;;;;;;5023767;28;20056;-65
2022/04/13 12:26:41;;;;;;;5.85;1.67;;;;;;;;;;5019325;28;20057;-65
2022/04/13 12:29:18;;;;;;;4.18;1.50;;;;;;;;;;5020027;28;20045;-65
2022/04/13 12:31:53;;;;;;;4.57;1.52;;;;;;;;;;5020228;28;20496;-65
2022/04/13 12:34:25;;;;;;;4.22;1.25;;;;;;;;;;5018939;28;20755;-65
2022/04/13 12:37:02;;;;;;;3.88;1.60;;;;;;;;;;5021516;28;20066;-66
2022/04/13 12:39:30;;;;;;;7.65;1.70;;;;;;;;;;5018065;28;20046;-66
2022/04/13 12:41:57;;;;;;;2.83;1.27;;;;;;;;;;5017623;28;20057;-65
2022/04/13 12:44:23;;;;;;;4.20;1.20;;;;;;;;;;5018415;28;20049;-66
2022/04/13 12:46:50;;;;;;;3.95;1.52;;;;;;;;;;5017240;28;20054;-66
2022/04/13 12:49:19;;;;;;;6.78;1.88;;;;;;;;;;5017914;28;20050;-65
2022/04/13 12:51:45;;;;;;;3.80;1.70;;;;;;;;;;5017807;28;20057;-66
2022/04/13 12:54:16;;;;;;;4.88;1.20;;;;;;;;;;5019784;28;20050;-65
2022/04/13 12:56:47;;;;;;;4.40;1.52;;;;;;;;;;5015944;28;20531;-65
2022/04/13 12:59:22;;;;;;;3.92;1.40;;;;;;;;;;5019423;28;20045;-65
2022/04/13 13:01:52;;;;;;;4.32;1.70;;;;;;;;;;5018627;28;20053;-65
2022/04/13 13:04:21;;;;;;;2.85;1.48;;;;;;;;;;5015960;28;20133;-66
2022/04/13 13:07:07;;;;;;;5.25;1.55;;;;;;;;;;5018330;28;20530;-65
2022/04/13 13:09:36;;;;;;;7.05;1.95;;;;;;;;;;5018015;28;20045;-65
2022/04/13 13:12:04;;;;;;;7.80;1.98;;;;;;;;;;5016315;28;20057;-65
2022/04/13 13:15:01;;;;;;;7.72;1.80;;;;;;;;;;5018521;28;20111;-65
2022/04/13 13:17:31;;;;;;;3.70;1.60;;;;;;;;;;5019877;28;20041;-65
2022/04/13 13:20:15;;;;;;;4.57;1.60;;;;;;;;;;5019884;28;20045;-65
2022/04/13 13:22:46;;;;;;;5.95;1.60;;;;;;;;;;5016074;28;20471;-65
2022/04/13 13:25:16;;;;;;;6.10;1.60;;;;;;;;;;5017937;28;20049;-65
2022/04/13 13:27:51;;;;;;;5.47;1.70;;;;;;;;;;5016473;28;20048;-65
2022/04/13 13:30:19;;;;;;;5.43;1.92;;;;;;;;;;5018444;28;20049;-66
2022/04/13 13:32:54;;;;;;;5.22;1.80;;;;;;;;;;5018338;28;20050;-67
2022/04/13 13:35:25;;;;;;;4.57;1.58;;;;;;;;;;5016673;28;20129;-67
2022/04/13 13:37:53;;;;;;;4.43;1.60;;;;;;;;;;5017938;28;20463;-66
2022/04/13 13:40:28;;;;;;;8.57;2.05;;;;;;;;;;5016451;28;20042;-70
2022/04/13 13:42:55;;;;;;;5.85;1.67;;;;;;;;;;5019610;28;20050;-65
2022/04/13 13:45:22;;;;;;;6.20;2.10;;;;;;;;;;5021964;28;20046;-64
2022/04/13 13:47:49;;;;;;;5.88;2.05;;;;;;;;;;5021820;28;20136;-65
2022/04/13 13:50:16;;;;;;;3.97;1.65;;;;;;;;;;5020916;28;20455;-66
2022/04/13 13:52:42;;;;;;;4.60;1.40;;;;;;;;;;5020296;28;20061;-65
2022/04/13 13:55:09;;;;;;;7.45;1.67;;;;;;;;;;5023231;28;20049;-65
2022/04/13 13:57:36;;;;;;;4.15;1.90;;;;;;;;;;5017995;28;20049;-65
2022/04/13 14:00:08;;;;;;;5.22;1.55;;;;;;;;;;5019681;28;20053;-64
2022/04/13 14:02:35;;;;;;;6.93;2.00;;;;;;;;;;5018100;28;20096;-65
2022/04/13 14:05:03;;;;;;;6.20;1.50;;;;;;;;;;5027331;28;20132;-64
2022/04/13 14:07:31;;;;;;;6.22;1.70;;;;;;;;;;5037161;23;20043;-68
2022/04/13 14:09:58;;;;;;;5.85;1.77;;;;;;;;;;4977963;28;20050;-68
2022/04/13 14:12:25;;;;;;;5.43;1.77;;;;;;;;;;4980499;28;20626;-68
2022/04/13 14:14:54;;;;;;;4.22;1.77;;;;;;;;;;4977742;28;20101;-68
2022/04/13 14:17:22;;;;;;;7.13;1.77;;;;;;;;;;4977558;28;20047;-68
2022/04/13 14:19:48;;;;;;;5.88;1.75;;;;;;;;;;4945824;28;20047;-68
2022/04/13 14:22:15;;;;;;;5.65;1.73;;;;;;;;;;4978734;28;20050;-68
2022/04/13 14:24:42;;;;;;;9.57;2.17;;;;;;;;;;4978195;28;20051;-69
2022/04/13 14:27:08;;;;;;;5.32;1.70;;;;;;;;;;4982504;28;20500;-68
2022/04/13 14:29:35;;;;;;;4.10;1.83;;;;;;;;;;4977749;28;20082;-69
2022/04/13 14:32:02;;;;;;;6.10;1.80;;;;;;;;;;4977777;28;20409;-68
2022/04/13 14:34:28;;;;;;;6.28;1.88;;;;;;;;;;4978387;28;20060;-68
2022/04/13 14:36:55;;;;;;;3.65;2.15;;;;;;;;;;4979221;28;20479;-68
2022/04/13 14:39:22;;;;;;;4.95;1.90;;;;;;;;;;4976243;28;20101;-69
2022/04/13 14:41:49;;;;;;;5.90;1.88;;;;;;;;;;4977834;28;20054;-68
2022/04/13 14:44:15;;;;;;;6.00;1.90;;;;;;;;;;4978903;28;20054;-66
2022/04/13 14:46:42;;;;;;;5.60;1.60;;;;;;;;;;4978047;28;20497;-68
2022/04/13 14:49:09;;;;;;;9.65;1.85;;;;;;;;;;4979467;28;20046;-68
2022/04/13 14:51:38;;;;;;;6.05;1.77;;;;;;;;;;4977736;28;20058;-68
2022/04/13 14:54:04;;;;;;;4.97;1.92;;;;;;;;;;4962683;28;20058;-69
2022/04/13 14:56:31;;;;;;;4.88;1.85;;;;;;;;;;4980870;28;20050;-68